createdAt,value
2022-12-03T00:00:58.680Z,96.40
2022-12-03T00:03:27.529Z,96.40
2022-12-03T00:05:55.659Z,96.30
2022-12-03T00:08:23.379Z,96.50
2022-12-03T00:10:51.256Z,96.50
2022-12-03T00:13:20.353Z,96.70
2022-12-03T00:15:48.089Z,96.60
2022-12-03T00:18:15.982Z,96.40
2022-12-03T00:20:43.751Z,96.40
2022-12-03T00:23:11.439Z,96.30
2022-12-03T00:25:39.193Z,96.20
2022-12-03T00:28:07.554Z,96.10
2022-12-03T00:30:36.554Z,96.20
2022-12-03T00:33:04.486Z,96.40
2022-12-03T00:35:32.214Z,96.40
2022-12-03T00:37:59.947Z,96.70
2022-12-03T00:40:27.656Z,96.40
2022-12-03T00:42:55.391Z,96.50
2022-12-03T00:45:23.067Z,96.40
2022-12-03T00:47:52.100Z,96.40
2022-12-03T00:50:19.824Z,96.40
2022-12-03T00:52:47.664Z,96.30
2022-12-03T00:55:15.374Z,96.40
2022-12-03T00:57:43.091Z,96.40
2022-12-03T01:00:12.816Z,96.20
2022-12-03T01:02:40.959Z,96.30
2022-12-03T01:05:10.442Z,96.40
2022-12-03T01:07:38.280Z,96.80
2022-12-03T01:10:07.252Z,96.80
2022-12-03T01:12:34.979Z,96.80
2022-12-03T01:15:02.799Z,96.80
2022-12-03T01:17:30.506Z,96.80
2022-12-03T01:19:59.041Z,96.80
2022-12-03T01:22:28.150Z,96.80
2022-12-03T01:24:55.956Z,96.80
2022-12-03T01:27:24.299Z,96.80
2022-12-03T01:29:52.223Z,96.80
2022-12-03T01:32:19.411Z,96.80
2022-12-03T01:34:49.115Z,96.80
2022-12-03T01:37:17.970Z,96.80
2022-12-03T01:39:47.173Z,96.70
2022-12-03T01:42:19.270Z,96.80
2022-12-03T01:44:47.514Z,96.80
2022-12-03T01:47:17.719Z,96.80
2022-12-03T01:49:49.028Z,96.80
2022-12-03T01:52:19.667Z,96.80
2022-12-03T01:54:52.345Z,96.50
2022-12-03T01:57:23.462Z,96.10
2022-12-03T01:59:52.474Z,95.90
2022-12-03T02:02:23.662Z,95.80
2022-12-03T02:04:54.216Z,95.80
2022-12-03T02:07:26.289Z,95.70
2022-12-03T02:09:57.852Z,95.80
2022-12-03T02:12:32.675Z,95.70
2022-12-03T02:15:01.158Z,95.80
2022-12-03T02:17:29.534Z,95.80
2022-12-03T02:19:58.012Z,95.70
2022-12-03T02:22:35.261Z,95.50
2022-12-03T02:25:12.625Z,95.50
2022-12-03T02:27:40.736Z,95.70
2022-12-03T02:30:10.284Z,95.80
2022-12-03T02:32:38.994Z,96.00
2022-12-03T02:35:07.598Z,96.10
2022-12-03T02:37:37.471Z,96.10
2022-12-03T02:40:11.586Z,96.60
2022-12-03T02:42:39.902Z,96.50
2022-12-03T02:45:11.045Z,96.30
2022-12-03T02:47:42.899Z,96.20
2022-12-03T02:50:14.411Z,96.30
2022-12-03T02:52:44.429Z,96.40
2022-12-03T02:55:15.963Z,96.80
2022-12-03T02:57:44.789Z,96.80
2022-12-03T03:00:13.578Z,96.80
2022-12-03T03:02:44.810Z,96.80
2022-12-03T03:05:13.873Z,96.80
2022-12-03T03:07:42.563Z,96.80
2022-12-03T03:10:15.370Z,96.80
2022-12-03T03:12:43.244Z,96.80
2022-12-03T03:15:12.399Z,96.80
2022-12-03T03:17:40.299Z,96.80
2022-12-03T03:20:10.051Z,96.80
2022-12-03T03:22:39.995Z,96.80
2022-12-03T03:25:10.731Z,96.80
2022-12-03T03:27:40.966Z,96.80
2022-12-03T03:30:10.547Z,96.80
2022-12-03T03:32:39.270Z,96.80
2022-12-03T03:35:11.666Z,96.80
2022-12-03T03:37:39.940Z,96.80
2022-12-03T03:40:08.886Z,96.80
2022-12-03T03:42:37.834Z,96.80
2022-12-03T03:45:08.210Z,96.80
2022-12-03T03:47:36.015Z,96.80
2022-12-03T03:50:04.004Z,96.80
2022-12-03T03:52:31.819Z,96.80
2022-12-03T03:55:07.987Z,96.80
2022-12-03T03:57:35.893Z,96.80
2022-12-03T04:00:08.011Z,96.80
2022-12-03T04:02:38.462Z,96.80
2022-12-03T04:05:08.607Z,96.80
2022-12-03T04:07:36.313Z,96.80
2022-12-03T04:10:24.450Z,96.80
2022-12-03T04:12:58.398Z,96.80
2022-12-03T04:15:27.815Z,96.80
2022-12-03T04:18:09.666Z,96.30
2022-12-03T04:20:37.438Z,96.20
2022-12-03T04:23:05.019Z,96.10
2022-12-03T04:25:47.175Z,95.80
2022-12-03T04:28:28.863Z,95.90
2022-12-03T04:30:58.105Z,95.80
2022-12-03T04:33:39.819Z,95.70
2022-12-03T04:36:07.855Z,95.70
2022-12-03T04:38:36.186Z,95.70
2022-12-03T04:41:04.857Z,95.90
2022-12-03T04:43:34.480Z,96.10
2022-12-03T04:46:03.598Z,96.30
2022-12-03T04:48:31.380Z,96.60
2022-12-03T04:50:59.126Z,96.40
2022-12-03T04:53:26.767Z,96.40
2022-12-03T04:55:54.442Z,96.30
2022-12-03T04:58:22.145Z,96.20
2022-12-03T05:00:50.148Z,96.10
2022-12-03T05:03:19.328Z,96.00
2022-12-03T05:05:47.375Z,96.10
2022-12-03T05:08:15.222Z,96.10
2022-12-03T05:10:42.914Z,95.90
2022-12-03T05:13:10.626Z,95.60
2022-12-03T05:15:38.373Z,95.50
2022-12-03T05:18:06.400Z,95.40
2022-12-03T05:20:43.846Z,95.30
2022-12-03T05:23:14.586Z,94.90
2022-12-03T05:25:42.810Z,94.80
2022-12-03T05:28:10.542Z,94.90
2022-12-03T05:30:38.357Z,95.00
2022-12-03T05:33:06.082Z,95.40
2022-12-03T05:35:35.497Z,95.50
2022-12-03T05:38:03.287Z,96.10
2022-12-03T05:40:31.140Z,96.50
2022-12-03T05:42:58.014Z,96.50
2022-12-03T05:45:27.010Z,96.70
2022-12-03T05:47:55.985Z,96.50
2022-12-03T05:50:25.897Z,96.20
2022-12-03T05:52:58.326Z,96.00
2022-12-03T05:55:26.860Z,96.00
2022-12-03T05:57:54.955Z,95.80
2022-12-03T06:00:25.191Z,95.50
2022-12-03T06:02:53.722Z,95.20
2022-12-03T06:05:22.300Z,94.90
2022-12-03T06:07:52.268Z,94.90
2022-12-03T06:10:23.280Z,94.70
2022-12-03T06:12:51.558Z,94.70
2022-12-03T06:15:20.238Z,94.80
2022-12-03T06:17:48.451Z,95.00
2022-12-03T06:20:22.974Z,95.10
2022-12-03T06:22:51.160Z,94.90
2022-12-03T06:25:19.047Z,94.80
2022-12-03T06:27:48.683Z,94.80
2022-12-03T06:30:16.551Z,95.10
2022-12-03T06:32:44.291Z,95.30
2022-12-03T06:35:12.613Z,96.00
2022-12-03T06:37:40.298Z,96.30
2022-12-03T06:40:08.990Z,96.60
2022-12-03T06:42:36.701Z,96.80
2022-12-03T06:45:06.358Z,96.80
2022-12-03T06:47:34.408Z,96.80
2022-12-03T06:50:02.083Z,96.60
2022-12-03T06:52:29.852Z,96.00
2022-12-03T06:54:57.560Z,95.90
2022-12-03T06:57:25.303Z,96.00
2022-12-03T06:59:53.345Z,96.10
2022-12-03T07:02:23.060Z,96.00
2022-12-03T07:04:50.946Z,96.20
2022-12-03T07:07:18.680Z,95.80
2022-12-03T07:09:46.390Z,95.80
2022-12-03T07:12:14.285Z,95.80
2022-12-03T07:14:41.999Z,95.80
2022-12-03T07:17:09.798Z,95.80
2022-12-03T07:19:38.826Z,96.00
2022-12-03T07:22:06.527Z,95.80
2022-12-03T07:24:34.287Z,95.70
2022-12-03T07:27:02.100Z,95.60
2022-12-03T07:29:30.858Z,95.30
2022-12-03T07:31:58.586Z,95.20
2022-12-03T07:34:26.380Z,95.50
2022-12-03T07:36:56.147Z,95.60
2022-12-03T07:39:23.907Z,95.60
2022-12-03T07:41:51.658Z,95.90
2022-12-03T07:44:20.185Z,95.90
2022-12-03T07:46:48.138Z,95.90
2022-12-03T07:49:16.192Z,95.90
2022-12-03T07:51:46.081Z,95.90
2022-12-03T07:54:15.521Z,95.70
2022-12-03T07:56:43.211Z,95.70
2022-12-03T07:59:11.519Z,95.60
2022-12-03T08:01:39.576Z,95.30
2022-12-03T08:04:07.915Z,95.50
2022-12-03T08:06:35.789Z,95.10
2022-12-03T08:09:03.590Z,95.10
2022-12-03T08:11:34.152Z,95.10
2022-12-03T08:14:01.928Z,95.60
2022-12-03T08:16:31.886Z,95.70
2022-12-03T08:18:59.747Z,95.60
2022-12-03T08:21:35.257Z,95.60
2022-12-03T08:24:13.689Z,95.30
2022-12-03T08:26:44.184Z,95.10
2022-12-03T08:29:13.760Z,94.90
2022-12-03T08:31:42.372Z,95.50
2022-12-03T08:34:19.415Z,95.20
2022-12-03T08:36:48.169Z,93.90
2022-12-03T08:39:28.911Z,92.00
2022-12-03T08:42:17.179Z,92.50
2022-12-03T08:44:45.022Z,92.90
2022-12-03T08:47:17.387Z,94.00
2022-12-03T08:49:48.699Z,94.00
2022-12-03T08:52:19.545Z,93.90
2022-12-03T08:54:52.574Z,94.40
2022-12-03T08:57:27.935Z,94.80
2022-12-03T08:59:59.713Z,94.40
2022-12-03T09:02:32.938Z,94.00
2022-12-03T09:05:11.931Z,93.80
2022-12-03T09:07:39.642Z,93.30
2022-12-03T09:10:08.724Z,93.10
2022-12-03T09:12:39.568Z,92.70
2022-12-03T09:15:08.375Z,92.60
2022-12-03T09:17:36.188Z,91.90
2022-12-03T09:20:05.000Z,92.30
2022-12-03T09:22:32.775Z,93.50
2022-12-03T09:25:00.542Z,93.30
2022-12-03T09:27:28.481Z,93.40
2022-12-03T09:29:57.502Z,93.40
2022-12-03T09:32:25.394Z,93.20
2022-12-03T09:34:53.749Z,93.40
2022-12-03T09:37:22.184Z,94.00
2022-12-03T09:39:50.287Z,94.60
2022-12-03T09:42:18.424Z,94.20
2022-12-03T09:44:46.349Z,93.90
2022-12-03T09:47:15.459Z,94.20
2022-12-03T09:49:43.596Z,93.80
2022-12-03T09:52:17.655Z,93.60
2022-12-03T09:54:47.656Z,93.30
2022-12-03T09:57:16.140Z,93.20
2022-12-03T09:59:44.010Z,93.30
2022-12-03T10:02:20.812Z,94.10
2022-12-03T10:04:49.201Z,95.10
2022-12-03T10:07:17.574Z,95.40
2022-12-03T10:09:45.471Z,95.50
2022-12-03T10:12:14.756Z,95.30
2022-12-03T10:14:44.207Z,96.00
2022-12-03T10:17:13.000Z,96.40
2022-12-03T10:19:42.685Z,96.70
2022-12-03T10:22:10.402Z,96.40
2022-12-03T10:24:38.908Z,96.20
2022-12-03T10:27:21.925Z,96.70
2022-12-03T10:29:56.674Z,96.80
2022-12-03T10:32:29.656Z,96.40
2022-12-03T10:35:11.147Z,96.00
2022-12-03T10:37:57.995Z,96.00
2022-12-03T10:40:28.521Z,95.70
2022-12-03T10:43:14.855Z,95.80
2022-12-03T10:45:43.428Z,95.80
2022-12-03T10:48:14.883Z,95.40
2022-12-03T10:50:51.054Z,95.00
2022-12-03T10:53:20.583Z,94.80
2022-12-03T10:55:51.083Z,94.60
2022-12-03T10:58:22.775Z,94.20
2022-12-03T11:00:52.686Z,92.80
2022-12-03T11:03:22.991Z,92.90
2022-12-03T11:05:54.159Z,94.00
2022-12-03T11:08:23.451Z,94.80
2022-12-03T11:11:00.044Z,94.50
2022-12-03T11:13:53.246Z,93.10
2022-12-03T11:16:51.279Z,91.60
2022-12-03T11:19:40.324Z,90.00
2022-12-03T11:22:27.642Z,89.20
2022-12-03T11:25:25.206Z,88.30
2022-12-03T11:28:22.721Z,88.70
2022-12-03T11:30:58.598Z,88.10
2022-12-03T11:33:29.200Z,86.80
2022-12-03T11:36:13.718Z,86.10
2022-12-03T11:38:53.671Z,84.30
2022-12-03T11:41:25.040Z,84.50
2022-12-03T11:44:02.941Z,84.90
2022-12-03T11:46:41.423Z,84.80
2022-12-03T11:49:37.324Z,84.80
2022-12-03T11:52:20.912Z,84.80
2022-12-03T11:54:54.599Z,84.80
2022-12-03T11:57:29.064Z,85.80
2022-12-03T11:59:59.622Z,85.50
2022-12-03T12:02:27.423Z,85.30
2022-12-03T12:04:55.193Z,84.90
2022-12-03T12:07:38.028Z,85.00
2022-12-03T12:10:07.950Z,84.50
2022-12-03T12:12:39.649Z,83.90
2022-12-03T12:15:37.316Z,84.10
2022-12-03T12:18:35.358Z,84.50
2022-12-03T12:21:34.243Z,84.80
2022-12-03T12:24:31.944Z,84.90
2022-12-03T12:27:04.419Z,84.70
2022-12-03T12:29:32.299Z,85.60
2022-12-03T12:32:07.523Z,85.70
2022-12-03T12:34:37.761Z,85.60
2022-12-03T12:37:11.418Z,85.00
2022-12-03T12:39:39.465Z,85.20
2022-12-03T12:42:28.747Z,84.90
2022-12-03T12:45:02.077Z,85.40
2022-12-03T12:47:31.036Z,85.60
2022-12-03T12:49:59.555Z,85.70
2022-12-03T12:52:28.737Z,85.70
2022-12-03T12:54:59.078Z,85.70
2022-12-03T12:57:32.451Z,86.20
2022-12-03T13:00:00.356Z,85.80
2022-12-03T13:02:43.044Z,85.40
2022-12-03T13:05:13.790Z,85.90
2022-12-03T13:07:44.106Z,86.10
2022-12-03T13:10:36.723Z,85.70
2022-12-03T13:13:23.054Z,85.80
2022-12-03T13:15:54.411Z,86.60
2022-12-03T13:18:27.477Z,86.50
2022-12-03T13:20:56.065Z,86.60
2022-12-03T13:23:29.199Z,86.30
2022-12-03T13:26:06.597Z,86.60
2022-12-03T13:28:42.750Z,86.70
2022-12-03T13:31:24.941Z,86.60
2022-12-03T13:33:53.731Z,87.00
2022-12-03T13:36:23.830Z,86.80
2022-12-03T13:38:51.789Z,86.60
2022-12-03T13:41:35.246Z,87.20
2022-12-03T13:44:16.825Z,86.90
2022-12-03T13:46:45.329Z,87.00
2022-12-03T13:49:19.446Z,86.60
2022-12-03T13:51:47.448Z,86.70
2022-12-03T13:54:20.014Z,86.50
2022-12-03T13:56:47.758Z,86.70
2022-12-03T13:59:20.373Z,86.60
2022-12-03T14:01:50.931Z,86.70
2022-12-03T14:04:18.729Z,87.30
2022-12-03T14:06:48.362Z,87.00
2022-12-03T14:09:16.267Z,86.70
2022-12-03T14:11:57.948Z,86.90
2022-12-03T14:14:27.013Z,87.40
2022-12-03T14:16:59.673Z,87.40
2022-12-03T14:19:28.012Z,87.10
2022-12-03T14:21:55.700Z,87.50
2022-12-03T14:24:23.557Z,87.20
2022-12-03T14:26:51.512Z,87.40
2022-12-03T14:29:19.291Z,87.50
2022-12-03T14:31:48.412Z,87.90
2022-12-03T14:34:16.311Z,87.30
2022-12-03T14:36:44.222Z,87.30
2022-12-03T14:39:11.922Z,87.50
2022-12-03T14:41:53.698Z,87.20
2022-12-03T14:44:23.503Z,87.60
2022-12-03T14:46:56.794Z,87.60
2022-12-03T14:49:25.272Z,87.70
2022-12-03T14:51:53.048Z,87.80
2022-12-03T14:54:20.794Z,87.80
2022-12-03T14:56:48.535Z,87.20
2022-12-03T14:59:16.317Z,87.50
2022-12-03T15:01:44.104Z,87.60
2022-12-03T15:04:13.266Z,87.60
2022-12-03T15:06:41.051Z,87.90
2022-12-03T15:09:08.859Z,88.10
2022-12-03T15:11:40.254Z,87.70
2022-12-03T15:14:12.392Z,87.80
2022-12-03T15:16:40.372Z,87.90
2022-12-03T15:19:08.252Z,88.10
2022-12-03T15:21:37.335Z,88.20
2022-12-03T15:24:05.304Z,88.10
2022-12-03T15:26:33.109Z,87.90
2022-12-03T15:29:00.831Z,88.00
2022-12-03T15:31:28.558Z,88.10
2022-12-03T15:33:56.286Z,88.30
2022-12-03T15:36:23.995Z,88.20
2022-12-03T15:38:53.001Z,88.50
2022-12-03T15:41:23.967Z,88.50
2022-12-03T15:43:52.859Z,88.80
2022-12-03T15:46:21.002Z,88.90
2022-12-03T15:48:49.639Z,88.80
2022-12-03T15:51:17.702Z,89.30
2022-12-03T15:53:45.539Z,89.00
2022-12-03T15:56:15.413Z,89.20
2022-12-03T15:58:43.410Z,89.40
2022-12-03T16:01:13.282Z,89.10
2022-12-03T16:03:41.421Z,89.10
2022-12-03T16:06:09.254Z,89.30
2022-12-03T16:08:37.174Z,89.40
2022-12-03T16:11:06.438Z,89.60
2022-12-03T16:13:35.800Z,90.00
2022-12-03T16:16:03.587Z,89.80
2022-12-03T16:18:32.087Z,90.00
2022-12-03T16:20:59.790Z,90.00
2022-12-03T16:23:27.499Z,89.80
2022-12-03T16:25:55.192Z,89.90
2022-12-03T16:28:22.979Z,89.90
2022-12-03T16:30:51.990Z,90.00
2022-12-03T16:33:25.677Z,90.00
2022-12-03T16:35:55.331Z,90.20
2022-12-03T16:38:23.172Z,90.40
2022-12-03T16:40:50.854Z,90.30
2022-12-03T16:43:18.640Z,90.40
2022-12-03T16:46:00.367Z,90.30
2022-12-03T16:48:29.587Z,90.30
2022-12-03T16:50:57.437Z,90.30
2022-12-03T16:53:25.184Z,90.50
2022-12-03T16:55:52.900Z,90.60
2022-12-03T16:58:21.261Z,90.60
2022-12-03T17:00:49.333Z,91.00
2022-12-03T17:03:17.767Z,91.30
2022-12-03T17:05:47.613Z,91.30
2022-12-03T17:08:16.727Z,91.30
2022-12-03T17:10:44.993Z,91.30
2022-12-03T17:13:12.779Z,91.40
2022-12-03T17:15:40.973Z,91.30
2022-12-03T17:18:09.343Z,91.40
2022-12-03T17:20:37.417Z,91.40
2022-12-03T17:23:06.443Z,92.00
2022-12-03T17:25:35.229Z,92.50
2022-12-03T17:28:03.320Z,92.50
2022-12-03T17:30:31.030Z,92.50
2022-12-03T17:32:58.919Z,92.60
2022-12-03T17:35:26.721Z,92.50
2022-12-03T17:37:54.439Z,92.60
2022-12-03T17:40:23.676Z,92.70
2022-12-03T17:42:51.564Z,92.60
2022-12-03T17:45:19.259Z,92.60
2022-12-03T17:47:46.907Z,92.60
2022-12-03T17:50:14.619Z,92.50
2022-12-03T17:52:42.331Z,92.70
2022-12-03T17:55:13.153Z,93.30
2022-12-03T17:57:45.547Z,93.60
2022-12-03T18:00:13.923Z,93.60
2022-12-03T18:02:42.966Z,93.90
2022-12-03T18:05:11.061Z,93.80
2022-12-03T18:07:38.845Z,94.00
2022-12-03T18:10:08.226Z,94.10
2022-12-03T18:12:36.025Z,94.20
2022-12-03T18:15:05.629Z,94.30
2022-12-03T18:17:33.311Z,94.30
2022-12-03T18:20:03.263Z,94.30
2022-12-03T18:22:35.308Z,94.10
2022-12-03T18:25:04.512Z,94.20
2022-12-03T18:27:32.358Z,94.00
2022-12-03T18:30:00.450Z,94.20
2022-12-03T18:32:30.107Z,94.30
2022-12-03T18:34:58.300Z,94.10
2022-12-03T18:37:28.290Z,94.10
2022-12-03T18:39:57.473Z,94.40
2022-12-03T18:42:25.799Z,94.40
2022-12-03T18:44:56.003Z,94.30
2022-12-03T18:47:26.136Z,94.10
2022-12-03T18:49:55.740Z,93.80
2022-12-03T18:52:25.757Z,93.70
2022-12-03T18:55:08.028Z,94.10
2022-12-03T18:57:35.793Z,94.10
2022-12-03T19:00:13.072Z,94.20
2022-12-03T19:03:03.901Z,94.10
2022-12-03T19:05:35.291Z,94.00
2022-12-03T19:08:04.126Z,93.90
2022-12-03T19:10:32.030Z,93.70
2022-12-03T19:13:00.022Z,93.80
2022-12-03T19:15:27.843Z,93.80
2022-12-03T19:17:55.654Z,93.80
2022-12-03T19:20:23.546Z,93.90
2022-12-03T19:22:52.610Z,93.80
2022-12-03T19:25:20.363Z,93.60
2022-12-03T19:27:49.998Z,93.60
2022-12-03T19:30:18.138Z,93.70
2022-12-03T19:32:45.906Z,93.60
2022-12-03T19:35:13.657Z,93.80
2022-12-03T19:37:41.533Z,93.70
2022-12-03T19:40:11.575Z,93.80
2022-12-03T19:42:40.504Z,93.90
2022-12-03T19:45:09.060Z,93.70
2022-12-03T19:47:37.179Z,94.00
2022-12-03T19:50:05.595Z,94.40
2022-12-03T19:52:37.045Z,94.70
2022-12-03T19:55:05.263Z,94.70
2022-12-03T19:57:34.318Z,94.90
2022-12-03T20:00:02.152Z,94.70
2022-12-03T20:02:54.220Z,94.70
2022-12-03T20:05:22.046Z,94.70
2022-12-03T20:07:49.882Z,94.60
2022-12-03T20:10:17.819Z,94.60
2022-12-03T20:12:45.815Z,94.60
2022-12-03T20:15:14.747Z,94.40
2022-12-03T20:17:42.491Z,94.40
2022-12-03T20:20:12.332Z,94.30
2022-12-03T20:22:40.103Z,94.20
2022-12-03T20:25:08.665Z,94.10
2022-12-03T20:27:36.614Z,94.20
2022-12-03T20:30:07.053Z,94.30
2022-12-03T20:32:38.353Z,94.20
2022-12-03T20:35:11.545Z,94.40
2022-12-03T20:37:39.245Z,94.60
2022-12-03T20:40:07.886Z,94.80
2022-12-03T20:42:35.595Z,94.80
2022-12-03T20:45:03.382Z,95.10
2022-12-03T20:47:31.139Z,94.90
2022-12-03T20:49:58.850Z,94.70
2022-12-03T20:52:27.828Z,94.60
2022-12-03T20:54:55.493Z,94.70
2022-12-03T20:57:23.547Z,94.60
2022-12-03T20:59:51.460Z,94.50
2022-12-03T21:02:19.563Z,94.50
2022-12-03T21:04:47.442Z,95.00
2022-12-03T21:07:15.143Z,95.20
2022-12-03T21:09:44.207Z,95.10
2022-12-03T21:12:12.135Z,95.00
2022-12-03T21:14:39.859Z,95.10
2022-12-03T21:17:09.172Z,95.00
2022-12-03T21:19:39.075Z,95.00
2022-12-03T21:22:07.508Z,95.00
2022-12-03T21:24:35.560Z,94.90
2022-12-03T21:27:04.858Z,95.30
2022-12-03T21:29:32.783Z,95.50
2022-12-03T21:32:00.530Z,95.60
2022-12-03T21:34:35.561Z,95.70
2022-12-03T21:37:04.438Z,95.60
2022-12-03T21:39:32.294Z,95.60
2022-12-03T21:42:25.871Z,95.60
2022-12-03T21:44:49.065Z,95.50
2022-12-03T21:47:16.895Z,95.50
2022-12-03T21:49:44.651Z,95.70
2022-12-03T21:52:12.349Z,95.70
2022-12-03T21:54:40.197Z,95.80
2022-12-03T21:57:07.911Z,95.70
2022-12-03T21:59:35.831Z,95.70
2022-12-03T22:02:05.090Z,95.70
2022-12-03T22:04:32.921Z,95.70
2022-12-03T22:07:00.600Z,95.70
2022-12-03T22:09:28.698Z,95.60
2022-12-03T22:11:59.067Z,95.30
2022-12-03T22:14:26.792Z,95.40
2022-12-03T22:16:54.572Z,95.40
2022-12-03T22:19:24.539Z,95.20
2022-12-03T22:21:52.660Z,95.20
2022-12-03T22:24:20.392Z,95.00
2022-12-03T22:26:48.300Z,94.90
2022-12-03T22:29:16.363Z,94.80
2022-12-03T22:31:44.159Z,94.50
2022-12-03T22:34:11.851Z,94.40
2022-12-03T22:36:40.915Z,94.40
2022-12-03T22:39:08.676Z,94.20
2022-12-03T22:41:36.412Z,94.50
2022-12-03T22:44:04.129Z,94.80
2022-12-03T22:46:31.956Z,94.60
2022-12-03T22:49:06.429Z,94.60
2022-12-03T22:51:35.709Z,94.60
2022-12-03T22:54:05.407Z,94.80
2022-12-03T22:56:33.662Z,95.10
2022-12-03T22:59:01.673Z,95.10
2022-12-03T23:01:31.857Z,94.90
2022-12-03T23:03:59.951Z,94.70
2022-12-03T23:06:29.148Z,94.50
2022-12-03T23:08:57.763Z,94.70
2022-12-03T23:11:27.116Z,94.70
2022-12-03T23:13:55.331Z,94.50
2022-12-03T23:16:26.037Z,94.50
2022-12-03T23:18:53.922Z,94.20
2022-12-03T23:21:29.452Z,93.20
2022-12-03T23:23:57.875Z,93.40
2022-12-03T23:26:27.467Z,93.40
2022-12-03T23:28:55.227Z,93.60
2022-12-03T23:31:24.988Z,93.40
2022-12-03T23:33:53.418Z,93.30
2022-12-03T23:36:22.074Z,93.80
2022-12-03T23:38:49.903Z,93.50
2022-12-03T23:41:20.222Z,93.50
2022-12-03T23:43:50.439Z,93.50
2022-12-03T23:46:20.689Z,93.10
2022-12-03T23:48:48.480Z,93.10
2022-12-03T23:51:18.387Z,92.50
2022-12-03T23:53:46.394Z,92.60
2022-12-03T23:56:17.175Z,93.00
2022-12-03T23:58:45.386Z,92.40
